sensor_id;sensor_type;location;lat;lon;timestamp;temperature;humidity
33645;DHT22;19986;48.190;16.366;2022-10-31T00:00:08;14.90;99.90
33645;DHT22;19986;48.190;16.366;2022-10-31T00:02:34;14.90;99.90
33645;DHT22;19986;48.190;16.366;2022-10-31T00:05:00;15.00;99.90
33645;DHT22;19986;48.190;16.366;2022-10-31T00:07:26;15.00;99.90
33645;DHT22;19986;48.190;16.366;2022-10-31T00:09:51;15.10;99.90
33645;DHT22;19986;48.190;16.366;2022-10-31T00:12:17;15.20;99.90
33645;DHT22;19986;48.190;16.366;2022-10-31T00:14:43;15.20;99.90
33645;DHT22;19986;48.190;16.366;2022-10-31T00:17:09;15.20;99.90
33645;DHT22;19986;48.190;16.366;2022-10-31T00:19:35;15.20;99.90
33645;DHT22;19986;48.190;16.366;2022-10-31T00:22:00;15.20;99.90
33645;DHT22;19986;48.190;16.366;2022-10-31T00:24:26;15.30;99.90
33645;DHT22;19986;48.190;16.366;2022-10-31T00:26:52;15.20;99.90
33645;DHT22;19986;48.190;16.366;2022-10-31T00:29:18;15.20;99.90
33645;DHT22;19986;48.190;16.366;2022-10-31T00:31:44;15.20;99.90
33645;DHT22;19986;48.190;16.366;2022-10-31T00:34:10;15.30;99.90
33645;DHT22;19986;48.190;16.366;2022-10-31T00:36:35;15.20;99.90
33645;DHT22;19986;48.190;16.366;2022-10-31T00:39:01;15.20;99.90
33645;DHT22;19986;48.190;16.366;2022-10-31T00:41:27;15.20;99.90
33645;DHT22;19986;48.190;16.366;2022-10-31T00:43:54;15.20;99.90
33645;DHT22;19986;48.190;16.366;2022-10-31T00:46:20;15.20;99.90
33645;DHT22;19986;48.190;16.366;2022-10-31T00:48:46;15.20;99.90
33645;DHT22;19986;48.190;16.366;2022-10-31T00:51:12;15.20;99.90
33645;DHT22;19986;48.190;16.366;2022-10-31T00:53:38;15.20;99.90
33645;DHT22;19986;48.190;16.366;2022-10-31T00:56:04;15.30;99.90
33645;DHT22;19986;48.190;16.366;2022-10-31T00:58:30;15.20;99.90
33645;DHT22;19986;48.190;16.366;2022-10-31T01:00:56;15.30;99.90
33645;DHT22;19986;48.190;16.366;2022-10-31T01:03:23;15.30;99.90
33645;DHT22;19986;48.190;16.366;2022-10-31T01:08:29;15.30;99.90
33645;DHT22;19986;48.190;16.366;2022-10-31T01:11:16;15.40;99.90
33645;DHT22;19986;48.190;16.366;2022-10-31T01:13:43;15.40;99.90
33645;DHT22;19986;48.190;16.366;2022-10-31T01:16:12;15.30;99.90
33645;DHT22;19986;48.190;16.366;2022-10-31T01:18:38;15.30;99.90
33645;DHT22;19986;48.190;16.366;2022-10-31T01:21:10;15.30;99.90
33645;DHT22;19986;48.190;16.366;2022-10-31T01:23:36;15.30;99.90
33645;DHT22;19986;48.190;16.366;2022-10-31T01:26:16;15.30;99.90
33645;DHT22;19986;48.190;16.366;2022-10-31T01:28:57;15.30;99.90
33645;DHT22;19986;48.190;16.366;2022-10-31T01:31:26;15.30;99.90
33645;DHT22;19986;48.190;16.366;2022-10-31T01:33:52;15.30;99.90
33645;DHT22;19986;48.190;16.366;2022-10-31T01:38:48;15.30;99.90
33645;DHT22;19986;48.190;16.366;2022-10-31T01:41:24;15.30;99.90
33645;DHT22;19986;48.190;16.366;2022-10-31T01:43:53;15.20;99.90
33645;DHT22;19986;48.190;16.366;2022-10-31T01:46:30;15.20;99.90
33645;DHT22;19986;48.190;16.366;2022-10-31T01:51:54;15.30;99.90
33645;DHT22;19986;48.190;16.366;2022-10-31T01:54:25;15.20;99.90
33645;DHT22;19986;48.190;16.366;2022-10-31T01:56:55;15.20;99.90
33645;DHT22;19986;48.190;16.366;2022-10-31T01:59:25;15.30;99.90
33645;DHT22;19986;48.190;16.366;2022-10-31T02:01:53;15.30;99.90
33645;DHT22;19986;48.190;16.366;2022-10-31T02:04:22;15.30;99.90
33645;DHT22;19986;48.190;16.366;2022-10-31T02:07:10;15.20;99.90
33645;DHT22;19986;48.190;16.366;2022-10-31T02:09:38;15.20;99.90
33645;DHT22;19986;48.190;16.366;2022-10-31T02:12:05;15.20;99.90
33645;DHT22;19986;48.190;16.366;2022-10-31T02:14:33;15.20;99.90
33645;DHT22;19986;48.190;16.366;2022-10-31T02:17:00;15.10;99.90
33645;DHT22;19986;48.190;16.366;2022-10-31T02:19:41;15.20;99.90
33645;DHT22;19986;48.190;16.366;2022-10-31T02:22:24;15.20;99.90
33645;DHT22;19986;48.190;16.366;2022-10-31T02:34:27;15.30;99.90
33645;DHT22;19986;48.190;16.366;2022-10-31T02:37:05;15.30;99.90
33645;DHT22;19986;48.190;16.366;2022-10-31T02:42:13;15.20;99.90
33645;DHT22;19986;48.190;16.366;2022-10-31T02:44:53;15.20;99.90
33645;DHT22;19986;48.190;16.366;2022-10-31T02:47:27;15.30;99.90
33645;DHT22;19986;48.190;16.366;2022-10-31T02:50:13;15.30;99.90
33645;DHT22;19986;48.190;16.366;2022-10-31T02:52:40;15.20;99.90
33645;DHT22;19986;48.190;16.366;2022-10-31T02:57:38;15.20;99.90
33645;DHT22;19986;48.190;16.366;2022-10-31T03:00:08;15.30;99.90
33645;DHT22;19986;48.190;16.366;2022-10-31T03:02:58;15.20;99.90
33645;DHT22;19986;48.190;16.366;2022-10-31T03:10:41;15.20;99.90
33645;DHT22;19986;48.190;16.366;2022-10-31T03:13:51;15.20;99.90
33645;DHT22;19986;48.190;16.366;2022-10-31T03:16:45;15.20;99.90
33645;DHT22;19986;48.190;16.366;2022-10-31T03:19:30;15.20;99.90
33645;DHT22;19986;48.190;16.366;2022-10-31T03:22:01;15.20;99.90
33645;DHT22;19986;48.190;16.366;2022-10-31T03:24:34;15.20;99.90
33645;DHT22;19986;48.190;16.366;2022-10-31T03:27:02;15.20;99.90
33645;DHT22;19986;48.190;16.366;2022-10-31T03:29:32;15.30;99.90
33645;DHT22;19986;48.190;16.366;2022-10-31T03:32:21;15.30;99.90
33645;DHT22;19986;48.190;16.366;2022-10-31T03:34:50;15.30;99.90
33645;DHT22;19986;48.190;16.366;2022-10-31T03:37:19;15.30;99.90
33645;DHT22;19986;48.190;16.366;2022-10-31T03:39:47;15.30;99.90
33645;DHT22;19986;48.190;16.366;2022-10-31T03:42:18;15.20;99.90
33645;DHT22;19986;48.190;16.366;2022-10-31T03:44:49;15.20;99.90
33645;DHT22;19986;48.190;16.366;2022-10-31T03:47:17;15.10;99.90
33645;DHT22;19986;48.190;16.366;2022-10-31T03:49:43;15.20;99.90
33645;DHT22;19986;48.190;16.366;2022-10-31T03:58:11;15.20;99.90
33645;DHT22;19986;48.190;16.366;2022-10-31T04:00:42;15.20;99.90
33645;DHT22;19986;48.190;16.366;2022-10-31T04:03:12;15.20;99.90
33645;DHT22;19986;48.190;16.366;2022-10-31T04:05:40;15.10;99.90
33645;DHT22;19986;48.190;16.366;2022-10-31T04:08:13;15.10;99.90
33645;DHT22;19986;48.190;16.366;2022-10-31T04:10:41;15.10;99.90
33645;DHT22;19986;48.190;16.366;2022-10-31T04:13:17;15.00;99.90
33645;DHT22;19986;48.190;16.366;2022-10-31T04:15:45;15.00;99.90
33645;DHT22;19986;48.190;16.366;2022-10-31T04:18:12;15.00;99.90
33645;DHT22;19986;48.190;16.366;2022-10-31T04:20:40;15.00;99.90
33645;DHT22;19986;48.190;16.366;2022-10-31T04:23:22;14.90;99.90
33645;DHT22;19986;48.190;16.366;2022-10-31T04:25:49;14.90;99.90
33645;DHT22;19986;48.190;16.366;2022-10-31T04:28:16;14.80;99.90
33645;DHT22;19986;48.190;16.366;2022-10-31T04:30:42;14.80;99.90
33645;DHT22;19986;48.190;16.366;2022-10-31T04:33:08;14.80;99.90
33645;DHT22;19986;48.190;16.366;2022-10-31T04:35:36;14.80;99.90
33645;DHT22;19986;48.190;16.366;2022-10-31T04:38:02;14.70;99.90
33645;DHT22;19986;48.190;16.366;2022-10-31T04:40:28;14.70;99.90
33645;DHT22;19986;48.190;16.366;2022-10-31T04:42:54;14.70;99.90
33645;DHT22;19986;48.190;16.366;2022-10-31T04:45:20;14.70;99.90
33645;DHT22;19986;48.190;16.366;2022-10-31T04:47:46;14.70;99.90
33645;DHT22;19986;48.190;16.366;2022-10-31T04:50:12;14.70;99.90
33645;DHT22;19986;48.190;16.366;2022-10-31T04:52:42;14.70;99.90
33645;DHT22;19986;48.190;16.366;2022-10-31T04:55:08;14.70;99.90
33645;DHT22;19986;48.190;16.366;2022-10-31T04:57:45;14.70;99.90
33645;DHT22;19986;48.190;16.366;2022-10-31T05:00:17;14.70;99.90
33645;DHT22;19986;48.190;16.366;2022-10-31T05:02:51;14.70;99.90
33645;DHT22;19986;48.190;16.366;2022-10-31T05:05:23;14.60;99.90
33645;DHT22;19986;48.190;16.366;2022-10-31T05:07:50;14.60;99.90
33645;DHT22;19986;48.190;16.366;2022-10-31T05:10:19;14.60;99.90
33645;DHT22;19986;48.190;16.366;2022-10-31T05:12:46;14.60;99.90
33645;DHT22;19986;48.190;16.366;2022-10-31T05:15:13;14.60;99.90
33645;DHT22;19986;48.190;16.366;2022-10-31T05:17:39;14.60;99.90
33645;DHT22;19986;48.190;16.366;2022-10-31T05:20:05;14.60;99.90
33645;DHT22;19986;48.190;16.366;2022-10-31T05:22:31;14.60;99.90
33645;DHT22;19986;48.190;16.366;2022-10-31T05:24:57;14.60;99.90
33645;DHT22;19986;48.190;16.366;2022-10-31T05:27:23;14.60;99.90
33645;DHT22;19986;48.190;16.366;2022-10-31T05:29:49;14.60;99.90
33645;DHT22;19986;48.190;16.366;2022-10-31T05:32:14;14.60;99.90
33645;DHT22;19986;48.190;16.366;2022-10-31T05:34:43;14.60;99.90
33645;DHT22;19986;48.190;16.366;2022-10-31T05:37:08;14.60;99.90
33645;DHT22;19986;48.190;16.366;2022-10-31T05:39:34;14.50;99.90
33645;DHT22;19986;48.190;16.366;2022-10-31T05:42:00;14.50;99.90
33645;DHT22;19986;48.190;16.366;2022-10-31T05:44:26;14.50;99.90
33645;DHT22;19986;48.190;16.366;2022-10-31T05:46:52;14.60;99.90
33645;DHT22;19986;48.190;16.366;2022-10-31T05:49:18;14.60;99.90
33645;DHT22;19986;48.190;16.366;2022-10-31T05:51:44;14.50;99.90
33645;DHT22;19986;48.190;16.366;2022-10-31T05:54:09;14.60;99.90
33645;DHT22;19986;48.190;16.366;2022-10-31T05:56:35;14.60;99.90
33645;DHT22;19986;48.190;16.366;2022-10-31T05:59:01;14.50;99.90
33645;DHT22;19986;48.190;16.366;2022-10-31T06:01:27;14.60;99.90
33645;DHT22;19986;48.190;16.366;2022-10-31T06:03:53;14.60;99.90
33645;DHT22;19986;48.190;16.366;2022-10-31T06:06:19;14.60;99.90
33645;DHT22;19986;48.190;16.366;2022-10-31T06:08:45;14.50;99.90
33645;DHT22;19986;48.190;16.366;2022-10-31T06:11:11;14.50;99.90
33645;DHT22;19986;48.190;16.366;2022-10-31T06:13:37;14.60;99.90
33645;DHT22;19986;48.190;16.366;2022-10-31T06:16:03;14.60;99.90
33645;DHT22;19986;48.190;16.366;2022-10-31T06:18:28;14.60;99.90
33645;DHT22;19986;48.190;16.366;2022-10-31T06:20:54;14.60;99.90
33645;DHT22;19986;48.190;16.366;2022-10-31T06:23:20;14.50;99.90
33645;DHT22;19986;48.190;16.366;2022-10-31T06:25:50;14.50;99.90
33645;DHT22;19986;48.190;16.366;2022-10-31T06:28:16;14.50;99.90
33645;DHT22;19986;48.190;16.366;2022-10-31T06:30:41;14.60;99.90
33645;DHT22;19986;48.190;16.366;2022-10-31T06:33:07;14.70;99.90
33645;DHT22;19986;48.190;16.366;2022-10-31T06:35:33;14.70;99.90
33645;DHT22;19986;48.190;16.366;2022-10-31T06:37:59;14.80;99.90
33645;DHT22;19986;48.190;16.366;2022-10-31T06:40:25;14.80;99.90
33645;DHT22;19986;48.190;16.366;2022-10-31T06:43:00;14.80;99.90
33645;DHT22;19986;48.190;16.366;2022-10-31T06:45:27;14.90;99.90
33645;DHT22;19986;48.190;16.366;2022-10-31T06:47:53;14.90;99.90
33645;DHT22;19986;48.190;16.366;2022-10-31T06:50:21;14.90;99.90
33645;DHT22;19986;48.190;16.366;2022-10-31T06:52:54;15.00;99.90
33645;DHT22;19986;48.190;16.366;2022-10-31T06:55:21;15.00;99.90
33645;DHT22;19986;48.190;16.366;2022-10-31T06:57:59;15.00;99.90
33645;DHT22;19986;48.190;16.366;2022-10-31T07:00:27;15.00;99.90
33645;DHT22;19986;48.190;16.366;2022-10-31T07:02:57;15.00;99.90
33645;DHT22;19986;48.190;16.366;2022-10-31T07:05:24;15.00;99.90
33645;DHT22;19986;48.190;16.366;2022-10-31T07:07:58;15.10;99.90
33645;DHT22;19986;48.190;16.366;2022-10-31T07:10:26;15.10;99.90
33645;DHT22;19986;48.190;16.366;2022-10-31T07:12:59;15.10;99.90
33645;DHT22;19986;48.190;16.366;2022-10-31T07:15:27;15.10;99.90
33645;DHT22;19986;48.190;16.366;2022-10-31T07:17:53;15.10;99.90
33645;DHT22;19986;48.190;16.366;2022-10-31T07:20:20;15.10;99.90
33645;DHT22;19986;48.190;16.366;2022-10-31T07:22:46;15.10;99.90
33645;DHT22;19986;48.190;16.366;2022-10-31T07:25:11;15.10;99.90
33645;DHT22;19986;48.190;16.366;2022-10-31T07:27:38;15.20;99.90
33645;DHT22;19986;48.190;16.366;2022-10-31T07:30:08;15.20;99.90
33645;DHT22;19986;48.190;16.366;2022-10-31T07:32:41;15.30;99.90
33645;DHT22;19986;48.190;16.366;2022-10-31T07:35:10;15.20;99.90
33645;DHT22;19986;48.190;16.366;2022-10-31T07:37:37;15.20;99.90
33645;DHT22;19986;48.190;16.366;2022-10-31T07:40:04;15.10;99.90
33645;DHT22;19986;48.190;16.366;2022-10-31T07:42:41;15.10;99.90
33645;DHT22;19986;48.190;16.366;2022-10-31T07:45:10;15.10;99.90
33645;DHT22;19986;48.190;16.366;2022-10-31T07:47:52;15.10;99.90
33645;DHT22;19986;48.190;16.366;2022-10-31T07:50:24;15.20;99.90
33645;DHT22;19986;48.190;16.366;2022-10-31T07:55:25;15.40;99.90
33645;DHT22;19986;48.190;16.366;2022-10-31T07:58:05;15.50;99.90
33645;DHT22;19986;48.190;16.366;2022-10-31T08:00:33;15.50;99.90
33645;DHT22;19986;48.190;16.366;2022-10-31T08:03:13;15.60;99.90
33645;DHT22;19986;48.190;16.366;2022-10-31T08:05:40;15.70;99.90
33645;DHT22;19986;48.190;16.366;2022-10-31T08:08:07;15.70;99.90
33645;DHT22;19986;48.190;16.366;2022-10-31T08:10:34;15.70;99.90
33645;DHT22;19986;48.190;16.366;2022-10-31T08:13:04;15.70;99.90
33645;DHT22;19986;48.190;16.366;2022-10-31T08:15:31;15.60;99.90
33645;DHT22;19986;48.190;16.366;2022-10-31T08:17:58;15.60;99.90
33645;DHT22;19986;48.190;16.366;2022-10-31T08:20:24;15.60;99.90
33645;DHT22;19986;48.190;16.366;2022-10-31T08:23:04;15.60;99.90
33645;DHT22;19986;48.190;16.366;2022-10-31T08:25:32;15.70;99.90
33645;DHT22;19986;48.190;16.366;2022-10-31T08:27:58;15.60;99.90
33645;DHT22;19986;48.190;16.366;2022-10-31T08:30:26;15.70;99.90
33645;DHT22;19986;48.190;16.366;2022-10-31T08:35:29;15.70;99.90
33645;DHT22;19986;48.190;16.366;2022-10-31T08:37:56;15.70;99.90
33645;DHT22;19986;48.190;16.366;2022-10-31T08:40:22;15.60;99.90
33645;DHT22;19986;48.190;16.366;2022-10-31T08:42:59;15.80;99.90
33645;DHT22;19986;48.190;16.366;2022-10-31T08:45:25;15.80;99.90
33645;DHT22;19986;48.190;16.366;2022-10-31T08:47:51;15.80;99.90
33645;DHT22;19986;48.190;16.366;2022-10-31T08:50:17;15.80;99.90
33645;DHT22;19986;48.190;16.366;2022-10-31T08:52:43;15.90;99.90
33645;DHT22;19986;48.190;16.366;2022-10-31T08:55:09;15.90;99.90
33645;DHT22;19986;48.190;16.366;2022-10-31T08:57:35;15.90;99.90
33645;DHT22;19986;48.190;16.366;2022-10-31T09:00:01;16.00;99.90
33645;DHT22;19986;48.190;16.366;2022-10-31T09:02:26;16.00;99.90
33645;DHT22;19986;48.190;16.366;2022-10-31T09:04:52;15.80;99.90
33645;DHT22;19986;48.190;16.366;2022-10-31T09:07:18;15.80;99.90
33645;DHT22;19986;48.190;16.366;2022-10-31T09:09:44;15.90;99.90
33645;DHT22;19986;48.190;16.366;2022-10-31T09:12:10;15.90;99.90
33645;DHT22;19986;48.190;16.366;2022-10-31T09:14:35;16.00;99.90
33645;DHT22;19986;48.190;16.366;2022-10-31T09:17:01;16.00;99.90
33645;DHT22;19986;48.190;16.366;2022-10-31T09:19:27;16.10;99.90
33645;DHT22;19986;48.190;16.366;2022-10-31T09:21:54;16.00;99.90
33645;DHT22;19986;48.190;16.366;2022-10-31T09:24:20;15.90;99.90
33645;DHT22;19986;48.190;16.366;2022-10-31T09:26:46;15.80;99.90
33645;DHT22;19986;48.190;16.366;2022-10-31T09:29:11;16.00;99.90
33645;DHT22;19986;48.190;16.366;2022-10-31T09:31:37;16.00;99.90
33645;DHT22;19986;48.190;16.366;2022-10-31T09:34:03;15.90;99.90
33645;DHT22;19986;48.190;16.366;2022-10-31T09:36:32;15.90;99.90
33645;DHT22;19986;48.190;16.366;2022-10-31T09:38:58;16.00;99.90
33645;DHT22;19986;48.190;16.366;2022-10-31T09:50:06;16.30;99.90
33645;DHT22;19986;48.190;16.366;2022-10-31T09:52:39;16.40;99.90
33645;DHT22;19986;48.190;16.366;2022-10-31T09:57:42;16.40;99.90
33645;DHT22;19986;48.190;16.366;2022-10-31T10:00:20;16.50;99.90
33645;DHT22;19986;48.190;16.366;2022-10-31T10:03:21;16.50;99.90
33645;DHT22;19986;48.190;16.366;2022-10-31T10:08:32;16.30;99.90
33645;DHT22;19986;48.190;16.366;2022-10-31T10:14:45;16.30;99.90
33645;DHT22;19986;48.190;16.366;2022-10-31T10:25:16;16.30;99.90
33645;DHT22;19986;48.190;16.366;2022-10-31T10:30:21;16.40;99.90
33645;DHT22;19986;48.190;16.366;2022-10-31T10:32:59;16.40;99.90
33645;DHT22;19986;48.190;16.366;2022-10-31T10:35:31;16.40;99.90
33645;DHT22;19986;48.190;16.366;2022-10-31T10:40:39;16.40;99.90
33645;DHT22;19986;48.190;16.366;2022-10-31T10:43:19;16.50;99.90
33645;DHT22;19986;48.190;16.366;2022-10-31T10:59:47;16.00;99.90
33645;DHT22;19986;48.190;16.366;2022-10-31T11:02:18;16.00;99.90
33645;DHT22;19986;48.190;16.366;2022-10-31T11:04:49;16.00;99.90
33645;DHT22;19986;48.190;16.366;2022-10-31T11:07:16;15.90;99.90
33645;DHT22;19986;48.190;16.366;2022-10-31T11:09:42;15.90;99.90
33645;DHT22;19986;48.190;16.366;2022-10-31T11:14:52;15.90;99.90
33645;DHT22;19986;48.190;16.366;2022-10-31T11:20:00;15.90;99.90
33645;DHT22;19986;48.190;16.366;2022-10-31T11:22:26;15.90;99.90
33645;DHT22;19986;48.190;16.366;2022-10-31T11:24:52;15.90;99.90
33645;DHT22;19986;48.190;16.366;2022-10-31T11:27:22;16.00;99.90
33645;DHT22;19986;48.190;16.366;2022-10-31T11:29:49;16.00;99.90
33645;DHT22;19986;48.190;16.366;2022-10-31T11:32:26;15.90;99.90
33645;DHT22;19986;48.190;16.366;2022-10-31T11:34:59;16.00;99.90
33645;DHT22;19986;48.190;16.366;2022-10-31T11:37:28;16.00;99.90
33645;DHT22;19986;48.190;16.366;2022-10-31T11:40:00;16.00;99.90
33645;DHT22;19986;48.190;16.366;2022-10-31T11:42:39;16.10;99.90
33645;DHT22;19986;48.190;16.366;2022-10-31T11:45:27;16.10;99.90
33645;DHT22;19986;48.190;16.366;2022-10-31T11:47:55;16.10;99.90
33645;DHT22;19986;48.190;16.366;2022-10-31T11:52:55;16.30;99.90
33645;DHT22;19986;48.190;16.366;2022-10-31T11:55:37;16.30;99.90
33645;DHT22;19986;48.190;16.366;2022-10-31T11:58:04;16.30;99.90
33645;DHT22;19986;48.190;16.366;2022-10-31T12:00:37;16.30;99.90
33645;DHT22;19986;48.190;16.366;2022-10-31T12:06:09;16.30;99.90
33645;DHT22;19986;48.190;16.366;2022-10-31T12:08:40;16.30;99.90
33645;DHT22;19986;48.190;16.366;2022-10-31T12:16:56;16.20;99.90
33645;DHT22;19986;48.190;16.366;2022-10-31T12:25:54;16.20;99.90
33645;DHT22;19986;48.190;16.366;2022-10-31T12:31:50;16.30;99.90
33645;DHT22;19986;48.190;16.366;2022-10-31T12:34:58;16.40;99.90
33645;DHT22;19986;48.190;16.366;2022-10-31T12:43:26;16.40;99.90
33645;DHT22;19986;48.190;16.366;2022-10-31T12:45:58;16.40;99.90
33645;DHT22;19986;48.190;16.366;2022-10-31T13:02:55;16.30;99.90
33645;DHT22;19986;48.190;16.366;2022-10-31T13:05:12;16.20;99.90
33645;DHT22;19986;48.190;16.366;2022-10-31T13:07:52;16.20;99.90
33645;DHT22;19986;48.190;16.366;2022-10-31T13:11:03;16.20;99.90
33645;DHT22;19986;48.190;16.366;2022-10-31T13:16:19;16.20;99.90
33645;DHT22;19986;48.190;16.366;2022-10-31T13:18:55;16.30;99.90
33645;DHT22;19986;48.190;16.366;2022-10-31T13:21:30;16.20;99.90
33645;DHT22;19986;48.190;16.366;2022-10-31T13:24:03;16.20;99.90
33645;DHT22;19986;48.190;16.366;2022-10-31T13:26:37;16.20;99.90
33645;DHT22;19986;48.190;16.366;2022-10-31T13:31:40;16.20;99.90
33645;DHT22;19986;48.190;16.366;2022-10-31T13:34:16;16.20;99.90
33645;DHT22;19986;48.190;16.366;2022-10-31T13:37:18;16.20;99.90
33645;DHT22;19986;48.190;16.366;2022-10-31T13:40:13;16.10;99.90
33645;DHT22;19986;48.190;16.366;2022-10-31T13:43:02;16.00;99.90
33645;DHT22;19986;48.190;16.366;2022-10-31T13:45:32;16.00;99.90
33645;DHT22;19986;48.190;16.366;2022-10-31T13:50:42;15.90;99.90
33645;DHT22;19986;48.190;16.366;2022-10-31T13:56:23;15.90;99.90
33645;DHT22;19986;48.190;16.366;2022-10-31T13:59:17;15.80;99.90
33645;DHT22;19986;48.190;16.366;2022-10-31T14:01:49;15.70;99.90
33645;DHT22;19986;48.190;16.366;2022-10-31T14:04:22;15.70;99.90
33645;DHT22;19986;48.190;16.366;2022-10-31T14:06:52;15.70;99.90
33645;DHT22;19986;48.190;16.366;2022-10-31T14:11:59;15.60;99.90
33645;DHT22;19986;48.190;16.366;2022-10-31T14:14:31;15.60;99.90
33645;DHT22;19986;48.190;16.366;2022-10-31T14:17:02;15.50;99.90
33645;DHT22;19986;48.190;16.366;2022-10-31T14:19:28;15.60;99.90
33645;DHT22;19986;48.190;16.366;2022-10-31T14:21:54;15.60;99.90
33645;DHT22;19986;48.190;16.366;2022-10-31T14:27:01;15.50;99.90
33645;DHT22;19986;48.190;16.366;2022-10-31T14:29:29;15.60;99.90
33645;DHT22;19986;48.190;16.366;2022-10-31T14:32:06;15.60;99.90
33645;DHT22;19986;48.190;16.366;2022-10-31T14:45:06;15.50;99.90
33645;DHT22;19986;48.190;16.366;2022-10-31T14:53:14;15.40;99.90
33645;DHT22;19986;48.190;16.366;2022-10-31T14:55:46;15.40;99.90
33645;DHT22;19986;48.190;16.366;2022-10-31T14:58:17;15.40;99.90
33645;DHT22;19986;48.190;16.366;2022-10-31T15:00:44;15.40;99.90
33645;DHT22;19986;48.190;16.366;2022-10-31T15:03:21;15.40;99.90
33645;DHT22;19986;48.190;16.366;2022-10-31T15:05:53;15.40;99.90
33645;DHT22;19986;48.190;16.366;2022-10-31T15:08:37;15.40;99.90
33645;DHT22;19986;48.190;16.366;2022-10-31T15:13:44;15.30;99.90
33645;DHT22;19986;48.190;16.366;2022-10-31T15:16:12;15.30;99.90
33645;DHT22;19986;48.190;16.366;2022-10-31T15:18:50;15.30;99.90
33645;DHT22;19986;48.190;16.366;2022-10-31T15:21:24;15.30;99.90
33645;DHT22;19986;48.190;16.366;2022-10-31T15:23:53;15.30;99.90
33645;DHT22;19986;48.190;16.366;2022-10-31T15:26:21;15.30;99.90
33645;DHT22;19986;48.190;16.366;2022-10-31T15:28:59;15.40;99.90
33645;DHT22;19986;48.190;16.366;2022-10-31T15:31:25;15.40;99.90
33645;DHT22;19986;48.190;16.366;2022-10-31T15:33:55;15.40;99.90
33645;DHT22;19986;48.190;16.366;2022-10-31T15:36:24;15.40;99.90
33645;DHT22;19986;48.190;16.366;2022-10-31T15:38:51;15.50;99.90
33645;DHT22;19986;48.190;16.366;2022-10-31T15:41:28;15.50;99.90
33645;DHT22;19986;48.190;16.366;2022-10-31T15:43:59;15.40;99.90
33645;DHT22;19986;48.190;16.366;2022-10-31T15:46:27;15.30;99.90
33645;DHT22;19986;48.190;16.366;2022-10-31T15:48:53;15.40;99.90
33645;DHT22;19986;48.190;16.366;2022-10-31T15:51:32;15.50;99.90
33645;DHT22;19986;48.190;16.366;2022-10-31T15:53:59;15.40;99.90
33645;DHT22;19986;48.190;16.366;2022-10-31T15:56:28;15.30;99.90
33645;DHT22;19986;48.190;16.366;2022-10-31T15:58:56;15.30;99.90
33645;DHT22;19986;48.190;16.366;2022-10-31T16:01:27;15.30;99.90
33645;DHT22;19986;48.190;16.366;2022-10-31T16:06:29;15.20;99.90
33645;DHT22;19986;48.190;16.366;2022-10-31T16:08:55;15.20;99.90
33645;DHT22;19986;48.190;16.366;2022-10-31T16:11:23;15.20;99.90
33645;DHT22;19986;48.190;16.366;2022-10-31T16:13:57;15.20;99.90
33645;DHT22;19986;48.190;16.366;2022-10-31T16:16:24;15.20;99.90
33645;DHT22;19986;48.190;16.366;2022-10-31T16:18:52;15.20;99.90
33645;DHT22;19986;48.190;16.366;2022-10-31T16:21:25;15.30;99.90
33645;DHT22;19986;48.190;16.366;2022-10-31T16:24:00;15.20;99.90
33645;DHT22;19986;48.190;16.366;2022-10-31T16:26:26;15.20;99.90
33645;DHT22;19986;48.190;16.366;2022-10-31T16:28:57;15.10;99.90
33645;DHT22;19986;48.190;16.366;2022-10-31T16:31:38;15.10;99.90
33645;DHT22;19986;48.190;16.366;2022-10-31T16:34:12;15.00;99.90
33645;DHT22;19986;48.190;16.366;2022-10-31T16:36:38;15.00;99.90
33645;DHT22;19986;48.190;16.366;2022-10-31T16:39:06;15.00;99.90
33645;DHT22;19986;48.190;16.366;2022-10-31T16:41:41;15.00;99.90
33645;DHT22;19986;48.190;16.366;2022-10-31T16:44:24;14.90;99.90
33645;DHT22;19986;48.190;16.366;2022-10-31T16:47:17;14.90;99.90
33645;DHT22;19986;48.190;16.366;2022-10-31T16:49:46;15.00;99.90
33645;DHT22;19986;48.190;16.366;2022-10-31T16:52:12;14.90;99.90
33645;DHT22;19986;48.190;16.366;2022-10-31T16:54:38;15.00;99.90
33645;DHT22;19986;48.190;16.366;2022-10-31T16:57:05;14.90;99.90
33645;DHT22;19986;48.190;16.366;2022-10-31T16:59:32;14.90;99.90
33645;DHT22;19986;48.190;16.366;2022-10-31T17:01:59;14.90;99.90
33645;DHT22;19986;48.190;16.366;2022-10-31T17:04:25;14.90;99.90
33645;DHT22;19986;48.190;16.366;2022-10-31T17:06:51;14.90;99.90
33645;DHT22;19986;48.190;16.366;2022-10-31T17:09:17;14.90;99.90
33645;DHT22;19986;48.190;16.366;2022-10-31T17:11:49;14.90;99.90
33645;DHT22;19986;48.190;16.366;2022-10-31T17:14:19;14.80;99.90
33645;DHT22;19986;48.190;16.366;2022-10-31T17:16:44;14.80;99.90
33645;DHT22;19986;48.190;16.366;2022-10-31T17:19:10;14.80;99.90
33645;DHT22;19986;48.190;16.366;2022-10-31T17:21:37;14.80;99.90
33645;DHT22;19986;48.190;16.366;2022-10-31T17:24:03;14.70;99.90
33645;DHT22;19986;48.190;16.366;2022-10-31T17:26:29;14.70;99.90
33645;DHT22;19986;48.190;16.366;2022-10-31T17:28:55;14.70;99.90
33645;DHT22;19986;48.190;16.366;2022-10-31T17:31:35;14.70;99.90
33645;DHT22;19986;48.190;16.366;2022-10-31T17:34:02;14.70;99.90
33645;DHT22;19986;48.190;16.366;2022-10-31T17:36:33;14.60;99.90
33645;DHT22;19986;48.190;16.366;2022-10-31T17:38:59;14.60;99.90
33645;DHT22;19986;48.190;16.366;2022-10-31T17:41:26;14.50;99.90
33645;DHT22;19986;48.190;16.366;2022-10-31T17:43:55;14.50;99.90
33645;DHT22;19986;48.190;16.366;2022-10-31T17:46:26;14.70;99.90
33645;DHT22;19986;48.190;16.366;2022-10-31T17:48:53;14.70;99.90
33645;DHT22;19986;48.190;16.366;2022-10-31T17:51:19;14.70;99.90
33645;DHT22;19986;48.190;16.366;2022-10-31T17:53:45;14.70;99.90
33645;DHT22;19986;48.190;16.366;2022-10-31T17:56:10;14.70;99.90
33645;DHT22;19986;48.190;16.366;2022-10-31T17:58:37;14.70;99.90
33645;DHT22;19986;48.190;16.366;2022-10-31T18:01:08;14.70;99.90
33645;DHT22;19986;48.190;16.366;2022-10-31T18:03:35;14.80;99.90
33645;DHT22;19986;48.190;16.366;2022-10-31T18:06:00;14.80;99.90
33645;DHT22;19986;48.190;16.366;2022-10-31T18:08:31;14.70;99.90
33645;DHT22;19986;48.190;16.366;2022-10-31T18:10:58;14.60;99.90
33645;DHT22;19986;48.190;16.366;2022-10-31T18:13:27;14.60;99.90
33645;DHT22;19986;48.190;16.366;2022-10-31T18:15:54;14.60;99.90
33645;DHT22;19986;48.190;16.366;2022-10-31T18:18:20;14.60;99.90
33645;DHT22;19986;48.190;16.366;2022-10-31T18:20:46;14.50;99.90